createdAt,value
2022-08-05T00:00:17.723Z,9.15
2022-08-05T00:02:50.483Z,15.15
2022-08-05T00:06:02.496Z,18.92
2022-08-05T00:08:32.417Z,18.83
2022-08-05T00:11:00.797Z,12.90
2022-08-05T00:13:38.326Z,14.77
2022-08-05T00:16:09.244Z,14.77
2022-08-05T00:18:39.628Z,15.57
2022-08-05T00:21:08.473Z,9.98
2022-08-05T00:23:46.453Z,15.80
2022-08-05T00:26:23.148Z,9.85
2022-08-05T00:28:51.484Z,10.27
2022-08-05T00:31:54.359Z,14.20
2022-08-05T00:34:56.351Z,12.90
2022-08-05T00:37:10.727Z,16.00
2022-08-05T00:39:44.528Z,14.15
2022-08-05T00:42:37.210Z,8.30
2022-08-05T00:45:08.550Z,12.55
2022-08-05T00:47:56.728Z,9.70
2022-08-05T00:50:25.838Z,12.98
2022-08-05T00:52:55.371Z,10.10
2022-08-05T00:55:33.979Z,15.43
2022-08-05T00:58:12.827Z,9.70
2022-08-05T01:00:42.509Z,8.43
2022-08-05T01:03:22.659Z,12.18
2022-08-05T01:05:51.601Z,11.40
2022-08-05T01:08:30.768Z,10.25
2022-08-05T01:11:14.392Z,12.40
2022-08-05T01:14:01.028Z,11.07
2022-08-05T01:16:39.429Z,10.93
2022-08-05T01:19:16.395Z,10.50
2022-08-05T01:22:15.363Z,10.05
2022-08-05T01:25:04.610Z,11.02
2022-08-05T01:28:08.789Z,9.95
2022-08-05T01:30:41.021Z,11.25
2022-08-05T01:33:26.106Z,8.55
2022-08-05T01:38:30.158Z,11.85
2022-08-05T01:41:01.462Z,11.07
2022-08-05T01:43:30.540Z,11.05
2022-08-05T01:46:07.254Z,12.95
2022-08-05T01:48:49.713Z,11.02
2022-08-05T01:51:19.185Z,12.52
2022-08-05T01:53:58.126Z,8.68
2022-08-05T01:58:12.357Z,11.90
2022-08-05T01:59:21.973Z,11.68
2022-08-05T02:01:55.633Z,7.35
2022-08-05T02:04:29.933Z,9.77
2022-08-05T02:06:59.182Z,10.38
2022-08-05T02:09:28.058Z,10.82
2022-08-05T02:12:05.550Z,8.95
2022-08-05T02:14:38.684Z,10.50
2022-08-05T02:17:16.713Z,9.43
2022-08-05T02:19:49.399Z,12.88
2022-08-05T02:22:27.018Z,13.77
2022-08-05T02:25:01.930Z,12.30
2022-08-05T02:27:58.307Z,8.80
2022-08-05T02:30:22.781Z,10.02
2022-08-05T02:32:58.980Z,15.50
2022-08-05T02:35:33.406Z,11.50
2022-08-05T02:38:09.432Z,13.05
2022-08-05T02:40:38.944Z,8.40
2022-08-05T02:43:08.144Z,10.95
2022-08-05T02:45:51.990Z,10.73
2022-08-05T02:48:29.496Z,10.45
2022-08-05T02:51:00.202Z,12.45
2022-08-05T02:53:29.183Z,8.07
2022-08-05T02:56:09.386Z,9.55
2022-08-05T02:58:37.995Z,8.20
2022-08-05T03:01:15.729Z,10.23
2022-08-05T03:04:02.613Z,12.47
2022-08-05T03:06:57.024Z,9.05
2022-08-05T03:09:36.082Z,10.35
2022-08-05T03:12:06.470Z,14.75
2022-08-05T03:14:36.631Z,16.85
2022-08-05T03:17:14.147Z,17.33
2022-08-05T03:19:45.798Z,17.63
2022-08-05T03:22:19.026Z,15.02
2022-08-05T03:25:11.668Z,10.25
2022-08-05T03:27:58.983Z,9.00
2022-08-05T03:30:30.207Z,11.63
2022-08-05T03:33:02.805Z,13.02
2022-08-05T03:35:34.051Z,10.32
2022-08-05T03:38:11.454Z,14.60
2022-08-05T03:40:45.304Z,12.10
2022-08-05T03:44:08.273Z,10.57
2022-08-05T03:46:04.226Z,10.48
2022-08-05T03:48:35.165Z,11.68
2022-08-05T03:52:37.821Z,11.65
2022-08-05T03:55:54.023Z,10.90
2022-08-05T03:56:54.565Z,7.07
2022-08-05T04:02:38.245Z,6.68
2022-08-05T04:05:09.743Z,6.53
2022-08-05T04:07:57.375Z,6.28
2022-08-05T04:10:28.298Z,7.10
2022-08-05T04:13:01.308Z,6.32
2022-08-05T04:15:32.854Z,5.82
2022-08-05T04:18:06.703Z,8.52
2022-08-05T04:20:35.773Z,7.57
2022-08-05T04:23:05.101Z,4.90
2022-08-05T04:25:56.592Z,6.20
2022-08-05T04:28:21.292Z,6.63
2022-08-05T04:30:58.672Z,5.90
2022-08-05T04:34:17.010Z,5.65
2022-08-05T04:36:44.723Z,7.65
2022-08-05T04:39:07.326Z,5.28
2022-08-05T04:41:37.673Z,7.78
2022-08-05T04:44:09.392Z,6.40
2022-08-05T04:46:38.172Z,7.13
2022-08-05T04:49:12.281Z,5.75
2022-08-05T04:51:43.509Z,7.40
2022-08-05T04:54:14.518Z,6.07
2022-08-05T04:56:42.520Z,6.28
2022-08-05T04:59:21.696Z,8.30
2022-08-05T05:02:07.653Z,5.22
2022-08-05T05:04:47.614Z,6.72
2022-08-05T05:07:18.464Z,4.85
2022-08-05T05:09:53.448Z,7.85
2022-08-05T05:12:22.258Z,7.00
2022-08-05T05:14:50.770Z,5.18
2022-08-05T05:17:23.770Z,6.03
2022-08-05T05:19:55.150Z,9.50
2022-08-05T05:22:26.592Z,9.70
2022-08-05T05:24:59.815Z,9.73
2022-08-05T05:27:44.713Z,5.15
2022-08-05T05:30:30.802Z,4.72
2022-08-05T05:33:01.215Z,5.85
2022-08-05T05:35:39.746Z,8.32
2022-08-05T05:38:13.514Z,9.50
2022-08-05T05:40:49.954Z,7.15
2022-08-05T05:43:22.229Z,7.53
2022-08-05T05:46:12.167Z,3.40
2022-08-05T05:48:43.975Z,7.35
2022-08-05T05:51:15.437Z,6.50
2022-08-05T05:53:46.099Z,6.93
2022-08-05T05:56:32.432Z,6.68
2022-08-05T05:59:05.338Z,4.50
2022-08-05T06:01:37.865Z,7.70
2022-08-05T06:04:11.255Z,6.45
2022-08-05T06:06:41.650Z,5.32
2022-08-05T06:09:16.550Z,5.45
2022-08-05T06:12:01.867Z,5.28
2022-08-05T06:14:30.945Z,5.97
2022-08-05T06:16:59.351Z,7.40
2022-08-05T06:19:34.113Z,6.63
2022-08-05T06:22:03.170Z,8.77
2022-08-05T06:24:31.385Z,7.22
2022-08-05T06:27:00.608Z,5.38
2022-08-05T06:29:48.153Z,6.07
2022-08-05T06:32:24.902Z,5.63
2022-08-05T06:34:54.095Z,4.15
2022-08-05T06:37:56.973Z,5.75
2022-08-05T06:40:18.043Z,5.70
2022-08-05T06:42:52.133Z,8.07
2022-08-05T06:45:44.692Z,5.30
2022-08-05T06:48:36.987Z,4.88
2022-08-05T06:50:57.924Z,7.03
2022-08-05T06:53:27.971Z,4.40
2022-08-05T06:55:57.094Z,5.40
2022-08-05T06:58:34.899Z,5.35
2022-08-05T07:01:07.071Z,5.85
2022-08-05T07:03:35.646Z,4.85
2022-08-05T07:06:06.169Z,6.03
2022-08-05T07:08:42.869Z,8.70
2022-08-05T07:14:02.866Z,5.03
2022-08-05T07:17:59.396Z,7.28
2022-08-05T07:20:10.958Z,5.60
2022-08-05T07:22:30.224Z,5.10
2022-08-05T07:25:09.412Z,4.80
2022-08-05T07:27:59.562Z,5.07
2022-08-05T07:30:38.512Z,5.07
2022-08-05T07:33:09.597Z,4.03
2022-08-05T07:35:55.926Z,5.75
2022-08-05T07:38:33.910Z,5.22
2022-08-05T07:42:06.798Z,5.63
2022-08-05T07:43:56.231Z,4.03
2022-08-05T07:46:27.135Z,3.95
2022-08-05T07:49:03.692Z,4.50
2022-08-05T07:51:40.791Z,7.50
2022-08-05T07:54:18.726Z,6.20
2022-08-05T07:57:01.732Z,4.57
2022-08-05T07:59:40.177Z,4.25
2022-08-05T08:02:16.554Z,3.28
2022-08-05T08:04:46.980Z,5.00
2022-08-05T08:07:15.553Z,4.78
2022-08-05T08:09:43.813Z,6.72
2022-08-05T08:12:35.013Z,3.10
2022-08-05T08:15:02.538Z,3.65
2022-08-05T08:17:33.010Z,3.65
2022-08-05T08:20:43.862Z,4.50
2022-08-05T08:22:54.073Z,5.30
2022-08-05T08:25:26.710Z,3.60
2022-08-05T08:28:18.853Z,5.50
2022-08-05T08:31:00.320Z,3.58
2022-08-05T08:33:30.521Z,3.05
2022-08-05T08:36:38.897Z,4.95
2022-08-05T08:38:55.565Z,5.40
2022-08-05T08:41:52.696Z,3.63
2022-08-05T08:45:25.307Z,3.97
2022-08-05T08:47:47.487Z,5.30
2022-08-05T08:50:12.984Z,6.03
2022-08-05T08:52:51.793Z,5.43
2022-08-05T08:55:32.065Z,4.22
2022-08-05T08:58:10.627Z,4.13
2022-08-05T09:00:42.996Z,3.92
2022-08-05T09:03:14.466Z,3.08
2022-08-05T09:06:09.259Z,4.47
2022-08-05T09:08:33.652Z,3.58
2022-08-05T09:11:01.649Z,8.00
2022-08-05T09:13:31.393Z,4.57
2022-08-05T09:16:01.024Z,6.18
2022-08-05T09:18:30.600Z,6.47
2022-08-05T09:20:59.864Z,5.07
2022-08-05T09:23:37.167Z,3.33
2022-08-05T09:26:10.030Z,4.88
2022-08-05T09:28:39.752Z,3.55
2022-08-05T09:31:22.776Z,4.57
2022-08-05T09:33:59.625Z,4.88
2022-08-05T09:36:54.637Z,5.03
2022-08-05T09:39:27.715Z,2.97
2022-08-05T09:42:11.360Z,6.25
2022-08-05T09:44:50.418Z,2.85
2022-08-05T09:47:20.815Z,3.72
2022-08-05T09:50:01.663Z,3.00
2022-08-05T09:52:33.639Z,3.53
2022-08-05T09:55:06.469Z,4.15
2022-08-05T09:57:54.622Z,2.92
2022-08-05T10:00:26.824Z,2.55
2022-08-05T10:02:58.446Z,5.10
2022-08-05T10:05:28.323Z,3.05
2022-08-05T10:08:35.231Z,2.95
2022-08-05T10:10:50.247Z,2.60
2022-08-05T10:13:31.841Z,3.78
2022-08-05T10:16:33.970Z,3.35
2022-08-05T10:19:08.596Z,4.97
2022-08-05T10:21:40.414Z,5.28
2022-08-05T10:24:13.523Z,3.72
2022-08-05T10:26:51.474Z,4.63
2022-08-05T10:29:23.850Z,5.68
2022-08-05T10:32:52.338Z,6.07
2022-08-05T10:35:00.932Z,4.03
2022-08-05T10:37:41.348Z,4.43
2022-08-05T10:40:28.124Z,2.72
2022-08-05T10:43:04.566Z,4.50
2022-08-05T10:45:40.509Z,2.80
2022-08-05T10:48:52.974Z,2.80
2022-08-05T10:51:29.003Z,4.18
2022-08-05T10:54:01.716Z,4.32
2022-08-05T10:56:46.125Z,4.85
2022-08-05T11:00:02.995Z,6.20
2022-08-05T11:02:38.264Z,6.05
2022-08-05T11:05:06.940Z,4.95
2022-08-05T11:08:02.927Z,4.97
2022-08-05T11:10:27.635Z,6.28
2022-08-05T11:12:58.147Z,7.25
2022-08-05T11:16:01.119Z,5.07
2022-08-05T11:18:29.976Z,5.43
2022-08-05T11:21:02.022Z,4.95
2022-08-05T11:24:04.207Z,5.25
2022-08-05T11:26:28.732Z,5.22
2022-08-05T11:29:13.301Z,6.25
2022-08-05T11:31:56.417Z,6.93
2022-08-05T11:34:51.995Z,5.68
2022-08-05T11:38:37.081Z,5.43
2022-08-05T11:41:35.041Z,4.53
2022-08-05T11:44:04.368Z,4.07
2022-08-05T11:46:37.815Z,4.63
2022-08-05T11:49:25.622Z,6.32
2022-08-05T11:51:54.312Z,4.57
2022-08-05T11:54:33.383Z,3.70
2022-08-05T11:57:08.132Z,3.85
2022-08-05T11:59:52.499Z,5.97
2022-08-05T12:02:30.298Z,5.38
2022-08-05T12:05:01.221Z,8.57
2022-08-05T12:08:08.457Z,6.57
2022-08-05T12:10:43.037Z,4.57
2022-08-05T12:13:18.415Z,5.28
2022-08-05T12:15:56.418Z,5.43
2022-08-05T12:18:34.720Z,5.10
2022-08-05T12:21:15.195Z,5.43
2022-08-05T12:23:54.010Z,6.20
2022-08-05T12:26:23.903Z,6.45
2022-08-05T12:28:52.175Z,8.13
2022-08-05T12:31:23.424Z,5.88
2022-08-05T12:34:03.829Z,5.70
2022-08-05T12:36:32.360Z,3.92
2022-08-05T12:39:00.759Z,4.88
2022-08-05T12:41:34.337Z,4.10
2022-08-05T12:44:04.969Z,8.73
2022-08-05T12:46:41.124Z,7.13
2022-08-05T12:49:15.956Z,6.78
2022-08-05T12:52:10.415Z,6.95
2022-08-05T12:54:36.831Z,3.88
2022-08-05T12:57:09.642Z,7.50
2022-08-05T13:01:57.040Z,7.43
2022-08-05T13:02:37.330Z,5.15
2022-08-05T13:05:11.174Z,6.00
2022-08-05T13:08:01.140Z,5.22
2022-08-05T13:10:33.367Z,3.95
2022-08-05T13:13:02.746Z,4.55
2022-08-05T13:15:41.695Z,5.10
2022-08-05T13:18:20.001Z,5.55
2022-08-05T13:20:50.352Z,4.75
2022-08-05T13:23:55.675Z,4.05
2022-08-05T13:26:30.320Z,3.50
2022-08-05T13:28:59.331Z,6.28
2022-08-05T13:31:33.938Z,5.28
2022-08-05T13:34:22.239Z,4.90
2022-08-05T13:36:55.108Z,4.10
2022-08-05T13:40:14.313Z,4.25
2022-08-05T13:42:14.785Z,5.03
2022-08-05T13:44:45.453Z,4.15
2022-08-05T13:47:35.705Z,3.72
2022-08-05T13:50:04.761Z,4.65
2022-08-05T13:52:36.183Z,5.07
2022-08-05T13:55:07.603Z,3.80
2022-08-05T13:57:51.234Z,4.43
2022-08-05T14:00:27.293Z,5.22
2022-08-05T14:02:56.331Z,5.25
2022-08-05T14:05:48.407Z,3.78
2022-08-05T14:08:21.352Z,4.32
2022-08-05T14:10:59.681Z,5.75
2022-08-05T14:13:32.266Z,5.32
2022-08-05T14:16:05.143Z,5.13
2022-08-05T14:18:38.016Z,5.65
2022-08-05T14:22:07.011Z,4.45
2022-08-05T14:23:55.407Z,4.80
2022-08-05T14:26:36.892Z,4.05
2022-08-05T14:29:16.220Z,3.67
2022-08-05T14:32:03.641Z,3.97
2022-08-05T14:34:35.361Z,8.88
2022-08-05T14:37:04.243Z,5.60
2022-08-05T14:39:49.648Z,3.35
2022-08-05T14:42:22.261Z,3.50
2022-08-05T14:44:50.390Z,3.55
2022-08-05T14:47:58.401Z,4.57
2022-08-05T14:50:17.191Z,5.22
2022-08-05T14:52:57.824Z,3.40
2022-08-05T14:55:38.415Z,7.82
2022-08-05T14:58:10.941Z,5.57
2022-08-05T15:00:59.770Z,4.13
2022-08-05T15:03:33.123Z,4.75
2022-08-05T15:06:08.098Z,4.88
2022-08-05T15:09:01.072Z,17.05
2022-08-05T15:11:52.626Z,7.90
2022-08-05T15:14:35.083Z,7.95
2022-08-05T15:17:44.859Z,14.38
2022-08-05T15:19:58.028Z,8.23
2022-08-05T15:22:27.266Z,8.40
2022-08-05T15:24:56.560Z,11.60
2022-08-05T15:27:26.280Z,9.20
2022-08-05T15:30:00.307Z,11.57
2022-08-05T15:32:28.885Z,13.35
2022-08-05T15:34:57.327Z,15.30
2022-08-05T15:38:31.704Z,14.07
2022-08-05T15:41:00.922Z,16.30
2022-08-05T15:43:10.804Z,14.40
2022-08-05T15:45:45.744Z,14.95
2022-08-05T15:48:14.926Z,21.70
2022-08-05T15:50:43.868Z,15.75
2022-08-05T15:53:13.674Z,14.35
2022-08-05T15:56:03.043Z,14.65
2022-08-05T15:58:35.693Z,15.88
2022-08-05T16:01:17.303Z,14.85
2022-08-05T16:03:48.471Z,11.85
2022-08-05T16:06:20.238Z,11.63
2022-08-05T16:08:51.105Z,11.25
2022-08-05T16:11:42.984Z,15.10
2022-08-05T16:14:10.683Z,13.98
2022-08-05T16:16:46.113Z,15.82
2022-08-05T16:19:25.400Z,13.10
2022-08-05T16:22:03.051Z,15.13
2022-08-05T16:24:41.223Z,14.77
2022-08-05T16:27:18.879Z,16.88
2022-08-05T16:29:51.059Z,21.40
2022-08-05T16:32:28.433Z,17.73
2022-08-05T16:34:57.672Z,17.15
2022-08-05T16:38:16.346Z,17.33
2022-08-05T16:40:26.464Z,18.00
2022-08-05T16:42:56.956Z,19.73
2022-08-05T16:46:04.520Z,18.40
2022-08-05T16:48:25.978Z,19.42
2022-08-05T16:51:08.764Z,19.17
2022-08-05T16:54:05.650Z,17.92
2022-08-05T16:56:27.165Z,20.52
2022-08-05T16:58:55.213Z,17.77
2022-08-05T17:01:24.922Z,17.90
2022-08-05T17:03:53.018Z,18.27
2022-08-05T17:06:24.556Z,19.17
2022-08-05T17:08:54.341Z,18.83
2022-08-05T17:11:25.176Z,18.02
2022-08-05T17:14:00.601Z,19.85
2022-08-05T17:16:37.105Z,15.52
2022-08-05T17:19:07.870Z,13.95
2022-08-05T17:21:39.817Z,15.88
2022-08-05T17:24:19.872Z,14.50
2022-08-05T17:26:58.018Z,11.93
2022-08-05T17:29:33.152Z,13.65
2022-08-05T17:32:11.866Z,13.13
2022-08-05T17:34:47.813Z,12.05
2022-08-05T17:37:39.288Z,12.55
2022-08-05T17:40:10.237Z,13.40
2022-08-05T17:42:41.707Z,10.40
2022-08-05T17:45:20.103Z,11.05
2022-08-05T17:47:54.475Z,9.80
2022-08-05T17:50:28.375Z,9.70
2022-08-05T17:52:59.787Z,13.50
2022-08-05T17:55:37.257Z,11.30
2022-08-05T17:58:09.575Z,10.43
2022-08-05T18:00:44.433Z,9.27
2022-08-05T18:03:24.116Z,11.65
2022-08-05T18:06:04.659Z,8.88
2022-08-05T18:08:33.811Z,9.65
2022-08-05T18:11:03.262Z,10.10
2022-08-05T18:13:36.627Z,9.00
2022-08-05T18:16:13.674Z,7.28
2022-08-05T18:18:48.610Z,8.20
2022-08-05T18:21:21.207Z,8.18
2022-08-05T18:26:27.563Z,7.40
2022-08-05T18:28:57.708Z,7.03
2022-08-05T18:31:33.707Z,7.35
2022-08-05T18:34:05.864Z,5.20
2022-08-05T18:36:35.982Z,4.75
2022-08-05T18:39:06.486Z,5.35
2022-08-05T18:41:58.404Z,6.20
2022-08-05T18:44:35.264Z,3.85
2022-08-05T18:47:15.509Z,3.00
2022-08-05T18:50:02.653Z,2.85
2022-08-05T18:52:35.653Z,4.95
2022-08-05T18:55:06.275Z,5.53
2022-08-05T18:57:43.000Z,4.43
2022-08-05T19:00:20.018Z,4.95
2022-08-05T19:02:49.150Z,3.42
2022-08-05T19:06:05.575Z,6.63
2022-08-05T19:08:13.487Z,4.05
2022-08-05T19:10:43.454Z,4.13
2022-08-05T19:13:15.961Z,3.10
2022-08-05T19:15:59.927Z,2.67
2022-08-05T19:18:32.766Z,3.70
2022-08-05T19:21:02.092Z,6.05
2022-08-05T19:24:08.186Z,2.97
2022-08-05T19:26:22.329Z,2.80
2022-08-05T19:28:50.261Z,2.50
2022-08-05T19:31:21.419Z,5.47
2022-08-05T19:33:56.410Z,3.78
2022-08-05T19:36:26.924Z,3.08
2022-08-05T19:39:00.707Z,2.85
2022-08-05T19:41:34.682Z,3.30
2022-08-05T19:44:18.369Z,4.63
2022-08-05T19:46:46.792Z,3.45
2022-08-05T19:49:17.021Z,2.97
2022-08-05T19:52:06.063Z,3.22
2022-08-05T19:54:37.008Z,3.97
2022-08-05T19:57:08.593Z,2.75
2022-08-05T20:00:01.079Z,2.58
2022-08-05T20:02:30.237Z,2.25
2022-08-05T20:04:59.913Z,2.08
2022-08-05T20:07:46.772Z,2.38
2022-08-05T20:10:17.196Z,5.20
2022-08-05T20:12:48.156Z,2.80
2022-08-05T20:15:22.927Z,2.95
2022-08-05T20:18:10.430Z,4.10
2022-08-05T20:20:55.119Z,3.22
2022-08-05T20:23:39.506Z,1.83
2022-08-05T20:26:15.429Z,2.78
2022-08-05T20:28:45.224Z,3.28
2022-08-05T20:31:13.431Z,5.47
2022-08-05T20:33:44.542Z,5.20
2022-08-05T20:36:14.300Z,3.53
2022-08-05T20:38:54.590Z,6.80
2022-08-05T20:41:26.865Z,7.15
2022-08-05T20:44:17.184Z,3.10
2022-08-05T20:46:47.739Z,3.15
2022-08-05T20:49:24.107Z,3.05
2022-08-05T20:51:53.698Z,2.80
2022-08-05T20:54:25.206Z,2.55
2022-08-05T20:56:53.464Z,4.13
2022-08-05T20:59:26.666Z,4.43
2022-08-05T21:01:57.895Z,5.47
2022-08-05T21:04:27.006Z,3.95
2022-08-05T21:06:55.800Z,6.15
2022-08-05T21:09:25.251Z,3.45
2022-08-05T21:12:09.679Z,4.28
2022-08-05T21:14:40.837Z,3.15
2022-08-05T21:17:08.897Z,4.35
2022-08-05T21:19:47.444Z,5.78
2022-08-05T21:22:21.913Z,5.07
2022-08-05T21:24:54.278Z,4.60
2022-08-05T21:27:24.741Z,3.88
2022-08-05T21:29:54.165Z,5.95
2022-08-05T21:32:26.705Z,3.67
2022-08-05T21:35:08.649Z,4.20
2022-08-05T21:37:47.450Z,4.10
2022-08-05T21:40:23.413Z,3.58
2022-08-05T21:42:52.642Z,4.68
2022-08-05T21:45:24.782Z,6.85
2022-08-05T21:48:08.212Z,3.33
2022-08-05T21:50:37.279Z,5.57
2022-08-05T21:53:16.393Z,3.17
2022-08-05T21:56:04.794Z,3.97
2022-08-05T21:58:35.200Z,5.93
2022-08-05T22:01:05.522Z,4.80
2022-08-05T22:03:51.899Z,4.57
2022-08-05T22:06:35.621Z,4.50
2022-08-05T22:09:13.547Z,5.25
2022-08-05T22:11:47.038Z,4.93
2022-08-05T22:14:34.667Z,7.63
2022-08-05T22:17:06.553Z,5.40
2022-08-05T22:20:00.250Z,4.85
2022-08-05T22:22:27.064Z,5.40
2022-08-05T22:25:21.608Z,5.10
2022-08-05T22:28:08.112Z,6.35
2022-08-05T22:30:55.391Z,3.90
2022-08-05T22:33:55.362Z,3.70
2022-08-05T22:36:14.434Z,4.72
2022-08-05T22:38:43.700Z,4.93
2022-08-05T22:41:16.459Z,5.72
2022-08-05T22:44:05.924Z,5.28
2022-08-05T22:46:33.790Z,6.60
2022-08-05T22:49:12.457Z,6.55
2022-08-05T22:52:04.673Z,8.20
2022-08-05T22:54:34.925Z,3.95
2022-08-05T22:57:03.415Z,4.10
2022-08-05T22:59:48.595Z,4.63
2022-08-05T23:02:29.575Z,3.78
2022-08-05T23:05:02.065Z,4.07
2022-08-05T23:07:43.837Z,3.83
2022-08-05T23:10:13.766Z,4.80
2022-08-05T23:12:43.168Z,7.30
2022-08-05T23:15:13.456Z,2.67
2022-08-05T23:18:00.609Z,3.78
2022-08-05T23:20:29.478Z,3.95
2022-08-05T23:22:58.511Z,5.18
2022-08-05T23:25:51.688Z,3.33
2022-08-05T23:28:15.853Z,4.25
2022-08-05T23:30:53.694Z,4.57
2022-08-05T23:34:02.857Z,4.97
2022-08-05T23:36:13.399Z,6.82
2022-08-05T23:38:42.759Z,4.20
2022-08-05T23:41:11.074Z,5.45
2022-08-05T23:44:06.448Z,5.65
2022-08-05T23:46:28.688Z,4.88
2022-08-05T23:49:00.346Z,4.20
2022-08-05T23:51:53.964Z,7.10
2022-08-05T23:54:25.685Z,6.82
2022-08-05T23:56:55.380Z,5.68
2022-08-05T23:59:27.652Z,5.65
